sensor_id;sensor_type;location;lat;lon;timestamp;pressure;altitude;pressure_sealevel;temperature;humidity
76994;BME280;66749;47.406;18.822;2024-02-16T00:00:28;101148.31;;;9.30;72.27
76994;BME280;66749;47.406;18.822;2024-02-16T00:01:00;101144.84;;;9.30;72.40
76994;BME280;66749;47.406;18.822;2024-02-16T00:01:32;101150.00;;;9.31;72.21
76994;BME280;66749;47.406;18.822;2024-02-16T00:02:05;101148.31;;;9.30;72.17
76994;BME280;66749;47.406;18.822;2024-02-16T00:02:37;101147.38;;;9.31;72.58
76994;BME280;66749;47.406;18.822;2024-02-16T00:03:14;101151.78;;;9.29;72.52
76994;BME280;66749;47.406;18.822;2024-02-16T00:03:46;101143.09;;;9.30;72.40
76994;BME280;66749;47.406;18.822;2024-02-16T00:04:18;101149.16;;;9.31;72.36
76994;BME280;66749;47.406;18.822;2024-02-16T00:04:50;101155.19;;;9.31;72.04
76994;BME280;66749;47.406;18.822;2024-02-16T00:05:22;101150.00;;;9.31;72.62
76994;BME280;66749;47.406;18.822;2024-02-16T00:05:54;101153.38;;;9.33;72.46
76994;BME280;66749;47.406;18.822;2024-02-16T00:06:26;101156.91;;;9.32;72.18
76994;BME280;66749;47.406;18.822;2024-02-16T00:06:58;101152.53;;;9.33;72.11
76994;BME280;66749;47.406;18.822;2024-02-16T00:07:30;101154.28;;;9.32;72.47
76994;BME280;66749;47.406;18.822;2024-02-16T00:08:02;101156.06;;;9.32;72.25
76994;BME280;66749;47.406;18.822;2024-02-16T00:08:34;101144.84;;;9.30;72.26
76994;BME280;66749;47.406;18.822;2024-02-16T00:09:10;101151.69;;;9.32;72.12
76994;BME280;66749;47.406;18.822;2024-02-16T00:09:42;101151.69;;;9.32;72.34
76994;BME280;66749;47.406;18.822;2024-02-16T00:10:14;101147.50;;;9.28;72.08
76994;BME280;66749;47.406;18.822;2024-02-16T00:10:46;101151.13;;;9.24;72.41
76994;BME280;66749;47.406;18.822;2024-02-16T00:11:18;101148.53;;;9.24;72.42
76994;BME280;66749;47.406;18.822;2024-02-16T00:11:53;101149.31;;;9.26;72.23
76994;BME280;66749;47.406;18.822;2024-02-16T00:12:26;101145.78;;;9.27;72.45
76994;BME280;66749;47.406;18.822;2024-02-16T00:12:58;101148.41;;;9.27;72.33
76994;BME280;66749;47.406;18.822;2024-02-16T00:13:30;101141.50;;;9.26;72.06
76994;BME280;66749;47.406;18.822;2024-02-16T00:14:02;101146.84;;;9.23;71.95
76994;BME280;66749;47.406;18.822;2024-02-16T00:14:33;101150.28;;;9.24;72.35
76994;BME280;66749;47.406;18.822;2024-02-16T00:15:06;101147.69;;;9.24;72.47
76994;BME280;66749;47.406;18.822;2024-02-16T00:15:38;101146.78;;;9.25;72.34
76994;BME280;66749;47.406;18.822;2024-02-16T00:16:10;101143.31;;;9.24;72.79
76994;BME280;66749;47.406;18.822;2024-02-16T00:16:42;101146.78;;;9.25;72.59
76994;BME280;66749;47.406;18.822;2024-02-16T00:17:14;101145.00;;;9.25;72.36
76994;BME280;66749;47.406;18.822;2024-02-16T00:17:46;101144.09;;;9.26;72.50
76994;BME280;66749;47.406;18.822;2024-02-16T00:18:18;101143.31;;;9.24;72.56
76994;BME280;66749;47.406;18.822;2024-02-16T00:18:50;101145.09;;;9.24;72.69
76994;BME280;66749;47.406;18.822;2024-02-16T00:19:22;101146.84;;;9.23;72.61
76994;BME280;66749;47.406;18.822;2024-02-16T00:19:55;101141.63;;;9.23;72.49
76994;BME280;66749;47.406;18.822;2024-02-16T00:20:27;101138.22;;;9.21;72.46
76994;BME280;66749;47.406;18.822;2024-02-16T00:20:59;101142.53;;;9.22;72.43
76994;BME280;66749;47.406;18.822;2024-02-16T00:21:31;101147.69;;;9.24;72.60
76994;BME280;66749;47.406;18.822;2024-02-16T00:22:03;101146.00;;;9.23;72.23
76994;BME280;66749;47.406;18.822;2024-02-16T00:22:35;101139.94;;;9.22;72.52
76994;BME280;66749;47.406;18.822;2024-02-16T00:23:07;101146.94;;;9.20;72.66
76994;BME280;66749;47.406;18.822;2024-02-16T00:23:39;101138.28;;;9.20;72.29
76994;BME280;66749;47.406;18.822;2024-02-16T00:24:11;101146.09;;;9.20;72.35
76994;BME280;66749;47.406;18.822;2024-02-16T00:24:43;101135.66;;;9.20;72.76
76994;BME280;66749;47.406;18.822;2024-02-16T00:25:15;101139.13;;;9.20;72.66
76994;BME280;66749;47.406;18.822;2024-02-16T00:25:47;101138.22;;;9.21;72.59
76994;BME280;66749;47.406;18.822;2024-02-16T00:26:19;101141.63;;;9.23;72.63
76994;BME280;66749;47.406;18.822;2024-02-16T00:26:52;101146.00;;;9.23;73.01
76994;BME280;66749;47.406;18.822;2024-02-16T00:27:24;101139.97;;;9.21;72.55
76994;BME280;66749;47.406;18.822;2024-02-16T00:27:56;101139.97;;;9.21;72.61
76994;BME280;66749;47.406;18.822;2024-02-16T00:28:28;101136.50;;;9.20;72.53
76994;BME280;66749;47.406;18.822;2024-02-16T00:29:00;101137.44;;;9.19;72.27
76994;BME280;66749;47.406;18.822;2024-02-16T00:29:32;101139.13;;;9.20;72.56
76994;BME280;66749;47.406;18.822;2024-02-16T00:30:04;101140.81;;;9.21;72.96
76994;BME280;66749;47.406;18.822;2024-02-16T00:30:39;101129.63;;;9.19;72.70
76994;BME280;66749;47.406;18.822;2024-02-16T00:31:11;101133.13;;;9.18;72.82
76994;BME280;66749;47.406;18.822;2024-02-16T00:31:42;101137.50;;;9.17;72.46
76994;BME280;66749;47.406;18.822;2024-02-16T00:32:14;101140.94;;;9.18;72.65
76994;BME280;66749;47.406;18.822;2024-02-16T00:32:49;101138.34;;;9.18;72.42
76994;BME280;66749;47.406;18.822;2024-02-16T00:33:21;101141.84;;;9.17;72.42
76994;BME280;66749;47.406;18.822;2024-02-16T00:33:53;101147.06;;;9.17;72.61
76994;BME280;66749;47.406;18.822;2024-02-16T00:34:25;101135.91;;;9.13;72.75
76994;BME280;66749;47.406;18.822;2024-02-16T00:34:57;101138.56;;;9.12;72.69
76994;BME280;66749;47.406;18.822;2024-02-16T00:35:29;101138.47;;;9.15;72.63
76994;BME280;66749;47.406;18.822;2024-02-16T00:36:04;101147.13;;;9.15;72.99
76994;BME280;66749;47.406;18.822;2024-02-16T00:36:36;101137.91;;;9.07;72.89
76994;BME280;66749;47.406;18.822;2024-02-16T00:37:08;101142.22;;;9.08;73.23
76994;BME280;66749;47.406;18.822;2024-02-16T00:37:41;101143.06;;;9.08;72.91
76994;BME280;66749;47.406;18.822;2024-02-16T00:38:13;101142.16;;;9.09;72.96
76994;BME280;66749;47.406;18.822;2024-02-16T00:38:45;101146.44;;;9.10;73.12
76994;BME280;66749;47.406;18.822;2024-02-16T00:39:18;101148.13;;;9.11;73.25
76994;BME280;66749;47.406;18.822;2024-02-16T00:39:50;101143.78;;;9.12;72.71
76994;BME280;66749;47.406;18.822;2024-02-16T00:40:23;101137.78;;;9.10;73.32
76994;BME280;66749;47.406;18.822;2024-02-16T00:40:55;101151.66;;;9.10;73.26
76994;BME280;66749;47.406;18.822;2024-02-16T00:41:27;101143.00;;;9.10;72.99
76994;BME280;66749;47.406;18.822;2024-02-16T00:41:59;101140.56;;;9.05;73.13
76994;BME280;66749;47.406;18.822;2024-02-16T00:42:31;101143.13;;;9.07;73.08
76994;BME280;66749;47.406;18.822;2024-02-16T00:43:03;101141.38;;;9.07;72.97
76994;BME280;66749;47.406;18.822;2024-02-16T00:43:35;101143.06;;;9.08;73.51
76994;BME280;66749;47.406;18.822;2024-02-16T00:44:06;101145.59;;;9.10;73.24
76994;BME280;66749;47.406;18.822;2024-02-16T00:44:39;101149.19;;;9.07;73.17
76994;BME280;66749;47.406;18.822;2024-02-16T00:45:11;101146.50;;;9.09;73.05
76994;BME280;66749;47.406;18.822;2024-02-16T00:45:43;101141.31;;;9.09;72.74
76994;BME280;66749;47.406;18.822;2024-02-16T00:46:16;101149.13;;;9.09;72.61
76994;BME280;66749;47.406;18.822;2024-02-16T00:46:48;101143.00;;;9.10;72.43
76994;BME280;66749;47.406;18.822;2024-02-16T00:47:19;101145.59;;;9.10;72.43
76994;BME280;66749;47.406;18.822;2024-02-16T00:47:51;101140.53;;;9.07;72.50
76994;BME280;66749;47.406;18.822;2024-02-16T00:48:23;101146.44;;;9.10;72.60
76994;BME280;66749;47.406;18.822;2024-02-16T00:48:55;101142.16;;;9.09;72.65
76994;BME280;66749;47.406;18.822;2024-02-16T00:49:28;101143.00;;;9.10;72.70
76994;BME280;66749;47.406;18.822;2024-02-16T00:50:00;101146.44;;;9.10;72.98
76994;BME280;66749;47.406;18.822;2024-02-16T00:50:32;101150.81;;;9.10;73.00
76994;BME280;66749;47.406;18.822;2024-02-16T00:51:04;101143.91;;;9.09;72.95
76994;BME280;66749;47.406;18.822;2024-02-16T00:51:36;101148.25;;;9.08;73.01
76994;BME280;66749;47.406;18.822;2024-02-16T00:52:08;101146.50;;;9.09;73.02
76994;BME280;66749;47.406;18.822;2024-02-16T00:52:42;101142.22;;;9.08;72.91
76994;BME280;66749;47.406;18.822;2024-02-16T00:53:16;101137.94;;;9.05;73.00
76994;BME280;66749;47.406;18.822;2024-02-16T00:53:48;101146.72;;;9.03;73.36
76994;BME280;66749;47.406;18.822;2024-02-16T00:54:20;101137.31;;;8.99;73.46
76994;BME280;66749;47.406;18.822;2024-02-16T00:54:52;101141.69;;;8.98;73.66
76994;BME280;66749;47.406;18.822;2024-02-16T00:55:23;101143.38;;;8.99;73.51
76994;BME280;66749;47.406;18.822;2024-02-16T00:55:55;101144.13;;;9.03;73.48
76994;BME280;66749;47.406;18.822;2024-02-16T00:56:27;101145.94;;;9.01;73.39
76994;BME280;66749;47.406;18.822;2024-02-16T00:56:59;101146.88;;;9.00;73.40
76994;BME280;66749;47.406;18.822;2024-02-16T00:57:34;101138.25;;;8.98;73.55
76994;BME280;66749;47.406;18.822;2024-02-16T00:58:07;101145.19;;;8.97;73.69
76994;BME280;66749;47.406;18.822;2024-02-16T00:58:41;101141.88;;;8.94;73.92
76994;BME280;66749;47.406;18.822;2024-02-16T00:59:16;101143.56;;;8.95;73.40
76994;BME280;66749;47.406;18.822;2024-02-16T00:59:48;101150.53;;;8.94;73.64
76994;BME280;66749;47.406;18.822;2024-02-16T01:00:20;101149.69;;;8.94;73.28
76994;BME280;66749;47.406;18.822;2024-02-16T01:00:52;101139.38;;;8.90;73.36
76994;BME280;66749;47.406;18.822;2024-02-16T01:01:24;101148.94;;;8.90;73.54
76994;BME280;66749;47.406;18.822;2024-02-16T01:01:57;101145.47;;;8.89;73.52
76994;BME280;66749;47.406;18.822;2024-02-16T01:02:29;101139.50;;;8.87;73.69
76994;BME280;66749;47.406;18.822;2024-02-16T01:03:03;101143.91;;;8.85;73.86
76994;BME280;66749;47.406;18.822;2024-02-16T01:03:35;101146.53;;;8.85;73.96
76994;BME280;66749;47.406;18.822;2024-02-16T01:04:07;101138.72;;;8.85;73.64
76994;BME280;66749;47.406;18.822;2024-02-16T01:04:39;101142.16;;;8.86;73.79
76994;BME280;66749;47.406;18.822;2024-02-16T01:05:11;101143.16;;;8.82;73.93
76994;BME280;66749;47.406;18.822;2024-02-16T01:05:44;101141.53;;;8.79;74.19
76994;BME280;66749;47.406;18.822;2024-02-16T01:06:16;101143.22;;;8.80;74.03
76994;BME280;66749;47.406;18.822;2024-02-16T01:06:47;101141.53;;;8.79;74.38
76994;BME280;66749;47.406;18.822;2024-02-16T01:07:19;101147.66;;;8.78;74.25
76994;BME280;66749;47.406;18.822;2024-02-16T01:07:51;101139.00;;;8.78;73.97
76994;BME280;66749;47.406;18.822;2024-02-16T01:08:24;101145.13;;;8.75;74.48
76994;BME280;66749;47.406;18.822;2024-02-16T01:08:56;101146.91;;;8.75;74.42
76994;BME280;66749;47.406;18.822;2024-02-16T01:09:28;101137.47;;;8.72;74.52
76994;BME280;66749;47.406;18.822;2024-02-16T01:10:00;101137.59;;;8.69;74.64
76994;BME280;66749;47.406;18.822;2024-02-16T01:10:34;101140.19;;;8.69;74.82
76994;BME280;66749;47.406;18.822;2024-02-16T01:11:06;101135.06;;;8.66;74.57
76994;BME280;66749;47.406;18.822;2024-02-16T01:11:42;101131.69;;;8.64;74.84
76994;BME280;66749;47.406;18.822;2024-02-16T01:12:14;101137.78;;;8.63;74.70
76994;BME280;66749;47.406;18.822;2024-02-16T01:12:45;101134.44;;;8.59;74.80
76994;BME280;66749;47.406;18.822;2024-02-16T01:13:17;101135.28;;;8.60;74.99
76994;BME280;66749;47.406;18.822;2024-02-16T01:13:49;101130.16;;;8.58;74.80
76994;BME280;66749;47.406;18.822;2024-02-16T01:14:21;101129.34;;;8.56;74.85
76994;BME280;66749;47.406;18.822;2024-02-16T01:14:53;101127.59;;;8.57;74.85
76994;BME280;66749;47.406;18.822;2024-02-16T01:15:24;101130.31;;;8.54;74.58
76994;BME280;66749;47.406;18.822;2024-02-16T01:15:57;101133.06;;;8.49;74.87
76994;BME280;66749;47.406;18.822;2024-02-16T01:16:28;101131.38;;;8.48;74.64
76994;BME280;66749;47.406;18.822;2024-02-16T01:17:03;101134.00;;;8.48;74.56
76994;BME280;66749;47.406;18.822;2024-02-16T01:17:35;101129.69;;;8.47;74.39
76994;BME280;66749;47.406;18.822;2024-02-16T01:18:07;101127.13;;;8.46;74.81
76994;BME280;66749;47.406;18.822;2024-02-16T01:18:39;101132.38;;;8.44;75.00
76994;BME280;66749;47.406;18.822;2024-02-16T01:19:12;101131.59;;;8.42;74.85
76994;BME280;66749;47.406;18.822;2024-02-16T01:19:44;101129.16;;;8.38;75.18
76994;BME280;66749;47.406;18.822;2024-02-16T01:20:16;101125.75;;;8.36;75.16
76994;BME280;66749;47.406;18.822;2024-02-16T01:20:48;101126.63;;;8.34;74.83
76994;BME280;66749;47.406;18.822;2024-02-16T01:21:20;101130.97;;;8.34;74.83
76994;BME280;66749;47.406;18.822;2024-02-16T01:21:52;101131.03;;;8.32;75.21
76994;BME280;66749;47.406;18.822;2024-02-16T01:22:28;101123.28;;;8.31;75.30
76994;BME280;66749;47.406;18.822;2024-02-16T01:23:01;101129.44;;;8.28;75.23
76994;BME280;66749;47.406;18.822;2024-02-16T01:23:34;101124.34;;;8.25;75.27
76994;BME280;66749;47.406;18.822;2024-02-16T01:24:06;101121.75;;;8.25;75.18
76994;BME280;66749;47.406;18.822;2024-02-16T01:24:38;101126.13;;;8.25;75.04
76994;BME280;66749;47.406;18.822;2024-02-16T01:25:10;101119.22;;;8.24;75.36
76994;BME280;66749;47.406;18.822;2024-02-16T01:25:42;101129.75;;;8.19;75.66
76994;BME280;66749;47.406;18.822;2024-02-16T01:26:13;101122.09;;;8.16;75.48
76994;BME280;66749;47.406;18.822;2024-02-16T01:26:45;101125.53;;;8.17;75.45
76994;BME280;66749;47.406;18.822;2024-02-16T01:27:17;101127.31;;;8.15;75.88
76994;BME280;66749;47.406;18.822;2024-02-16T01:27:49;101132.56;;;8.13;75.71
76994;BME280;66749;47.406;18.822;2024-02-16T01:28:21;101122.97;;;8.15;76.08
76994;BME280;66749;47.406;18.822;2024-02-16T01:28:54;101129.97;;;8.13;75.92
76994;BME280;66749;47.406;18.822;2024-02-16T01:29:26;101137.06;;;8.08;75.81
76994;BME280;66749;47.406;18.822;2024-02-16T01:29:58;101132.09;;;8.02;76.10
76994;BME280;66749;47.406;18.822;2024-02-16T01:30:30;101132.19;;;7.99;76.36
76994;BME280;66749;47.406;18.822;2024-02-16T01:31:02;101130.38;;;8.01;76.02
76994;BME280;66749;47.406;18.822;2024-02-16T01:31:34;101129.50;;;8.02;75.61
76994;BME280;66749;47.406;18.822;2024-02-16T01:32:07;101128.69;;;8.00;75.94
76994;BME280;66749;47.406;18.822;2024-02-16T01:32:39;101126.91;;;8.00;75.80
76994;BME280;66749;47.406;18.822;2024-02-16T01:33:11;101136.59;;;7.97;76.08
76994;BME280;66749;47.406;18.822;2024-02-16T01:33:43;101127.19;;;7.93;76.12
76994;BME280;66749;47.406;18.822;2024-02-16T01:34:15;101132.28;;;7.96;76.24
76994;BME280;66749;47.406;18.822;2024-02-16T01:34:47;101128.91;;;7.94;76.02
76994;BME280;66749;47.406;18.822;2024-02-16T01:35:21;101130.69;;;7.92;76.24
76994;BME280;66749;47.406;18.822;2024-02-16T01:35:53;101129.91;;;7.90;76.18
76994;BME280;66749;47.406;18.822;2024-02-16T01:36:25;101133.28;;;7.92;76.28
76994;BME280;66749;47.406;18.822;2024-02-16T01:36:57;101129.78;;;7.93;76.32
76994;BME280;66749;47.406;18.822;2024-02-16T01:37:29;101134.13;;;7.92;76.09
76994;BME280;66749;47.406;18.822;2024-02-16T01:38:03;101134.13;;;7.92;76.26
76994;BME280;66749;47.406;18.822;2024-02-16T01:38:35;101134.91;;;7.96;76.44
76994;BME280;66749;47.406;18.822;2024-02-16T01:39:07;101132.28;;;7.96;76.43
76994;BME280;66749;47.406;18.822;2024-02-16T01:39:39;101137.50;;;7.96;75.96
76994;BME280;66749;47.406;18.822;2024-02-16T01:40:11;101126.31;;;7.94;76.11
76994;BME280;66749;47.406;18.822;2024-02-16T01:40:46;101137.50;;;7.96;76.20
76994;BME280;66749;47.406;18.822;2024-02-16T01:41:17;101135.81;;;7.95;76.40
76994;BME280;66749;47.406;18.822;2024-02-16T01:41:49;101135.03;;;7.91;75.99
76994;BME280;66749;47.406;18.822;2024-02-16T01:42:21;101139.44;;;7.89;76.24
76994;BME280;66749;47.406;18.822;2024-02-16T01:42:54;101130.75;;;7.90;76.02
76994;BME280;66749;47.406;18.822;2024-02-16T01:43:25;101131.59;;;7.91;76.11
76994;BME280;66749;47.406;18.822;2024-02-16T01:43:59;101127.28;;;7.90;76.40
76994;BME280;66749;47.406;18.822;2024-02-16T01:44:31;101124.75;;;7.88;76.29
76994;BME280;66749;47.406;18.822;2024-02-16T01:45:02;101129.09;;;7.88;76.32
76994;BME280;66749;47.406;18.822;2024-02-16T01:45:34;101132.69;;;7.84;76.42
76994;BME280;66749;47.406;18.822;2024-02-16T01:46:06;101130.16;;;7.82;76.51
76994;BME280;66749;47.406;18.822;2024-02-16T01:46:38;101132.69;;;7.84;76.33
76994;BME280;66749;47.406;18.822;2024-02-16T01:47:11;101132.59;;;7.87;76.49
76994;BME280;66749;47.406;18.822;2024-02-16T01:47:44;101136.06;;;7.86;76.62
76994;BME280;66749;47.406;18.822;2024-02-16T01:48:18;101130.03;;;7.85;76.95
76994;BME280;66749;47.406;18.822;2024-02-16T01:48:51;101135.22;;;7.85;76.52
76994;BME280;66749;47.406;18.822;2024-02-16T01:49:24;101134.38;;;7.85;76.31
76994;BME280;66749;47.406;18.822;2024-02-16T01:49:56;101131.84;;;7.83;76.61
76994;BME280;66749;47.406;18.822;2024-02-16T01:50:28;101129.19;;;7.85;76.61
76994;BME280;66749;47.406;18.822;2024-02-16T01:51:01;101133.47;;;7.86;76.56
76994;BME280;66749;47.406;18.822;2024-02-16T01:51:35;101136.97;;;7.86;76.44
76994;BME280;66749;47.406;18.822;2024-02-16T01:52:07;101127.41;;;7.87;76.59
76994;BME280;66749;47.406;18.822;2024-02-16T01:52:39;101135.16;;;7.88;76.42
76994;BME280;66749;47.406;18.822;2024-02-16T01:53:15;101133.41;;;7.89;76.65
76994;BME280;66749;47.406;18.822;2024-02-16T01:53:51;101133.44;;;7.87;76.59
76994;BME280;66749;47.406;18.822;2024-02-16T01:54:23;101124.75;;;7.88;76.65
76994;BME280;66749;47.406;18.822;2024-02-16T01:54:58;101130.84;;;7.87;76.69
76994;BME280;66749;47.406;18.822;2024-02-16T01:55:30;101133.44;;;7.87;76.70
76994;BME280;66749;47.406;18.822;2024-02-16T01:56:03;101129.94;;;7.88;76.66
76994;BME280;66749;47.406;18.822;2024-02-16T01:56:34;101133.41;;;7.89;76.64
76994;BME280;66749;47.406;18.822;2024-02-16T01:57:07;101132.50;;;7.90;76.68
76994;BME280;66749;47.406;18.822;2024-02-16T01:57:39;101126.50;;;7.88;76.46
76994;BME280;66749;47.406;18.822;2024-02-16T01:58:12;101133.44;;;7.87;76.65
76994;BME280;66749;47.406;18.822;2024-02-16T01:58:44;101128.25;;;7.87;76.28
76994;BME280;66749;47.406;18.822;2024-02-16T01:59:16;101136.91;;;7.88;76.61
76994;BME280;66749;47.406;18.822;2024-02-16T01:59:48;101131.75;;;7.86;76.58
76994;BME280;66749;47.406;18.822;2024-02-16T02:00:20;101133.59;;;7.83;76.63
76994;BME280;66749;47.406;18.822;2024-02-16T02:00:52;101130.94;;;7.84;76.60
76994;BME280;66749;47.406;18.822;2024-02-16T02:01:24;101130.09;;;7.84;76.25
76994;BME280;66749;47.406;18.822;2024-02-16T02:01:56;101129.28;;;7.82;76.63
76994;BME280;66749;47.406;18.822;2024-02-16T02:02:28;101127.50;;;7.84;76.67
76994;BME280;66749;47.406;18.822;2024-02-16T02:02:59;101132.69;;;7.84;76.65
76994;BME280;66749;47.406;18.822;2024-02-16T02:03:31;101127.50;;;7.84;76.69
76994;BME280;66749;47.406;18.822;2024-02-16T02:04:04;101125.78;;;7.83;76.84
76994;BME280;66749;47.406;18.822;2024-02-16T02:04:37;101127.50;;;7.84;76.75
76994;BME280;66749;47.406;18.822;2024-02-16T02:05:09;101122.28;;;7.84;76.59
76994;BME280;66749;47.406;18.822;2024-02-16T02:05:45;101121.38;;;7.85;76.54
76994;BME280;66749;47.406;18.822;2024-02-16T02:06:18;101128.34;;;7.84;76.61
76994;BME280;66749;47.406;18.822;2024-02-16T02:06:50;101126.66;;;7.83;76.64
76994;BME280;66749;47.406;18.822;2024-02-16T02:07:25;101121.44;;;7.83;76.75
76994;BME280;66749;47.406;18.822;2024-02-16T02:08:09;101127.50;;;7.84;76.87
76994;BME280;66749;47.406;18.822;2024-02-16T02:08:41;101124.16;;;7.80;76.87
76994;BME280;66749;47.406;18.822;2024-02-16T02:09:13;101120.72;;;7.79;76.75
76994;BME280;66749;47.406;18.822;2024-02-16T02:09:45;101120.75;;;7.78;76.70
76994;BME280;66749;47.406;18.822;2024-02-16T02:10:17;101125.19;;;7.74;76.87
76994;BME280;66749;47.406;18.822;2024-02-16T02:10:49;101117.34;;;7.76;76.87
76994;BME280;66749;47.406;18.822;2024-02-16T02:11:21;101114.75;;;7.76;76.75
76994;BME280;66749;47.406;18.822;2024-02-16T02:11:52;101113.00;;;7.76;76.59
76994;BME280;66749;47.406;18.822;2024-02-16T02:12:25;101119.09;;;7.75;76.73
76994;BME280;66749;47.406;18.822;2024-02-16T02:12:57;101119.22;;;7.72;76.75
76994;BME280;66749;47.406;18.822;2024-02-16T02:13:29;101112.28;;;7.73;76.76
76994;BME280;66749;47.406;18.822;2024-02-16T02:14:01;101117.59;;;7.68;76.68
76994;BME280;66749;47.406;18.822;2024-02-16T02:14:33;101116.69;;;7.69;76.76
76994;BME280;66749;47.406;18.822;2024-02-16T02:15:05;101111.56;;;7.68;76.59
76994;BME280;66749;47.406;18.822;2024-02-16T02:15:37;101115.91;;;7.67;76.76
76994;BME280;66749;47.406;18.822;2024-02-16T02:16:10;101114.22;;;7.66;76.78
76994;BME280;66749;47.406;18.822;2024-02-16T02:16:42;101117.72;;;7.65;76.68
76994;BME280;66749;47.406;18.822;2024-02-16T02:17:25;101119.53;;;7.62;76.83
76994;BME280;66749;47.406;18.822;2024-02-16T02:17:57;101126.50;;;7.61;76.74
76994;BME280;66749;47.406;18.822;2024-02-16T02:18:31;101115.25;;;7.61;76.84
76994;BME280;66749;47.406;18.822;2024-02-16T02:19:04;101110.09;;;7.59;76.84
76994;BME280;66749;47.406;18.822;2024-02-16T02:19:37;101115.31;;;7.59;76.93
76994;BME280;66749;47.406;18.822;2024-02-16T02:20:09;101118.81;;;7.58;77.06
76994;BME280;66749;47.406;18.822;2024-02-16T02:20:43;101121.47;;;7.57;77.13
76994;BME280;66749;47.406;18.822;2024-02-16T02:21:15;101118.88;;;7.55;77.15
76994;BME280;66749;47.406;18.822;2024-02-16T02:21:46;101113.75;;;7.54;77.42
76994;BME280;66749;47.406;18.822;2024-02-16T02:22:19;101117.25;;;7.53;77.22
76994;BME280;66749;47.406;18.822;2024-02-16T02:22:51;101116.41;;;7.52;77.11
76994;BME280;66749;47.406;18.822;2024-02-16T02:23:24;101118.19;;;7.50;77.13
76994;BME280;66749;47.406;18.822;2024-02-16T02:23:55;101117.34;;;7.49;77.24
76994;BME280;66749;47.406;18.822;2024-02-16T02:24:27;101113.94;;;7.47;77.12
76994;BME280;66749;47.406;18.822;2024-02-16T02:24:59;101111.38;;;7.46;76.95
76994;BME280;66749;47.406;18.822;2024-02-16T02:25:31;101114.09;;;7.43;77.37
76994;BME280;66749;47.406;18.822;2024-02-16T02:26:03;101111.50;;;7.43;77.18
76994;BME280;66749;47.406;18.822;2024-02-16T02:26:35;101115.84;;;7.42;77.12
76994;BME280;66749;47.406;18.822;2024-02-16T02:27:07;101115.97;;;7.38;77.37
76994;BME280;66749;47.406;18.822;2024-02-16T02:27:39;101115.97;;;7.38;77.13
76994;BME280;66749;47.406;18.822;2024-02-16T02:28:11;101115.25;;;7.33;77.44
76994;BME280;66749;47.406;18.822;2024-02-16T02:28:43;101112.78;;;7.30;77.41
76994;BME280;66749;47.406;18.822;2024-02-16T02:29:15;101110.13;;;7.31;77.36
76994;BME280;66749;47.406;18.822;2024-02-16T02:29:46;101117.00;;;7.34;77.66
76994;BME280;66749;47.406;18.822;2024-02-16T02:30:18;101113.56;;;7.32;77.44
76994;BME280;66749;47.406;18.822;2024-02-16T02:30:50;101122.97;;;7.36;77.61
76994;BME280;66749;47.406;18.822;2024-02-16T02:31:22;101116.88;;;7.37;77.63
76994;BME280;66749;47.406;18.822;2024-02-16T02:31:54;101110.84;;;7.36;77.50
76994;BME280;66749;47.406;18.822;2024-02-16T02:32:26;101112.66;;;7.34;77.59
76994;BME280;66749;47.406;18.822;2024-02-16T02:32:58;101112.66;;;7.34;77.62
76994;BME280;66749;47.406;18.822;2024-02-16T02:33:30;101112.66;;;7.34;77.61
76994;BME280;66749;47.406;18.822;2024-02-16T02:34:02;101119.66;;;7.31;77.61
76994;BME280;66749;47.406;18.822;2024-02-16T02:34:34;101114.41;;;7.32;77.59
76994;BME280;66749;47.406;18.822;2024-02-16T02:35:08;101112.78;;;7.30;77.72
76994;BME280;66749;47.406;18.822;2024-02-16T02:35:40;101120.63;;;7.28;77.84
76994;BME280;66749;47.406;18.822;2024-02-16T02:36:12;101113.69;;;7.29;77.81
76994;BME280;66749;47.406;18.822;2024-02-16T02:36:44;101118.88;;;7.29;78.02
76994;BME280;66749;47.406;18.822;2024-02-16T02:37:15;101117.16;;;7.28;77.79
76994;BME280;66749;47.406;18.822;2024-02-16T02:37:47;101112.81;;;7.28;77.75
76994;BME280;66749;47.406;18.822;2024-02-16T02:38:19;101116.41;;;7.24;77.81
76994;BME280;66749;47.406;18.822;2024-02-16T02:38:51;101108.59;;;7.24;77.88
76994;BME280;66749;47.406;18.822;2024-02-16T02:39:23;101111.22;;;7.24;77.80
76994;BME280;66749;47.406;18.822;2024-02-16T02:39:55;101111.31;;;7.21;77.89
76994;BME280;66749;47.406;18.822;2024-02-16T02:40:28;101110.53;;;7.19;77.69
76994;BME280;66749;47.406;18.822;2024-02-16T02:41:00;101114.88;;;7.18;77.98
76994;BME280;66749;47.406;18.822;2024-02-16T02:41:34;101113.13;;;7.17;78.00
76994;BME280;66749;47.406;18.822;2024-02-16T02:42:06;101114.03;;;7.16;77.79
76994;BME280;66749;47.406;18.822;2024-02-16T02:42:40;101111.50;;;7.15;77.74
76994;BME280;66749;47.406;18.822;2024-02-16T02:43:11;101117.47;;;7.18;77.71
76994;BME280;66749;47.406;18.822;2024-02-16T02:43:43;101120.19;;;7.14;77.92
76994;BME280;66749;47.406;18.822;2024-02-16T02:44:15;101113.28;;;7.13;77.96
76994;BME280;66749;47.406;18.822;2024-02-16T02:44:47;101115.84;;;7.14;77.89
76994;BME280;66749;47.406;18.822;2024-02-16T02:45:24;101111.59;;;7.12;77.87
76994;BME280;66749;47.406;18.822;2024-02-16T02:45:56;101118.59;;;7.08;77.91
76994;BME280;66749;47.406;18.822;2024-02-16T02:46:28;101123.00;;;7.06;78.21
76994;BME280;66749;47.406;18.822;2024-02-16T02:47:00;101111.00;;;7.02;77.91
76994;BME280;66749;47.406;18.822;2024-02-16T02:47:31;101113.66;;;7.01;78.20
76994;BME280;66749;47.406;18.822;2024-02-16T02:48:04;101114.50;;;7.01;78.07
76994;BME280;66749;47.406;18.822;2024-02-16T02:48:36;101114.50;;;7.01;77.99
76994;BME280;66749;47.406;18.822;2024-02-16T02:49:08;101115.34;;;7.02;78.26
76994;BME280;66749;47.406;18.822;2024-02-16T02:49:40;101117.09;;;7.01;78.29